Time;durP1;ratioP1;P1;durP2;ratioP2;P2;SDS_P1;SDS_P2;PMS_P1;PMS_P2;Temp;Humidity;BMP_temperature;BMP_pressure;BME280_temperature;BME280_humidity;BME280_pressure;Samples;Min_cycle;Max_cycle;Signal;HPM_P1;HPM_P2
2022/01/01 00:00:08;;;;;;;2.80;1.73;;;1.70;99.90;;;;;;5051437;28;20218;-66
2022/01/01 00:02:39;;;;;;;3.38;1.58;;;1.60;99.90;;;;;;5046129;28;20210;-66
2022/01/01 00:05:14;;;;;;;1.48;1.38;;;1.50;99.90;;;;;;5055095;28;20217;-66
2022/01/01 00:07:45;;;;;;;3.17;1.70;;;1.40;99.90;;;;;;5059189;28;20206;-66
2022/01/01 00:10:17;;;;;;;1.95;1.55;;;1.30;99.90;;;;;;5044494;28;20205;-66
2022/01/01 00:12:48;;;;;;;2.20;1.98;;;1.20;99.90;;;;;;5059741;28;20284;-65
2022/01/01 00:15:20;;;;;;;2.20;1.63;;;1.20;99.90;;;;;;5043369;28;20230;-66
2022/01/01 00:21:57;;;;;;;2.05;1.55;;;1.00;99.90;;;;;;5034062;28;20699;-66
2022/01/01 00:24:28;;;;;;;5.97;2.00;;;1.00;99.90;;;;;;5040997;28;20661;-66
2022/01/01 00:27:01;;;;;;;1.63;1.52;;;0.90;99.90;;;;;;5036217;28;20267;-66
2022/01/01 00:29:32;;;;;;;2.53;1.92;;;0.80;99.90;;;;;;5047269;28;20562;-66
2022/01/01 00:32:05;;;;;;;3.38;2.20;;;0.60;99.90;;;;;;5043491;28;20221;-66
2022/01/01 00:34:36;;;;;;;2.45;1.85;;;0.60;99.90;;;;;;5046018;28;20217;-66
2022/01/01 00:37:08;;;;;;;2.38;2.17;;;0.60;99.90;;;;;;5045525;28;20517;-66
2022/01/01 00:39:39;;;;;;;1.63;1.52;;;0.60;99.90;;;;;;5045062;28;20210;-66
2022/01/01 00:42:09;;;;;;;2.58;2.17;;;0.60;99.90;;;;;;5047432;28;20209;-65
2022/01/01 00:44:40;;;;;;;2.35;1.83;;;0.50;99.90;;;;;;5046290;28;20210;-65
2022/01/01 00:47:13;;;;;;;3.22;2.30;;;0.40;99.90;;;;;;5048991;28;20212;-64
2022/01/01 00:49:44;;;;;;;3.15;2.47;;;0.40;99.90;;;;;;5045682;28;20210;-65
2022/01/01 00:52:15;;;;;;;2.47;2.05;;;0.40;99.90;;;;;;5047159;28;20213;-65
2022/01/01 00:54:45;;;;;;;7.47;2.30;;;0.40;99.90;;;;;;5048425;28;20605;-65
2022/01/01 00:57:16;;;;;;;1.88;1.70;;;0.20;99.90;;;;;;5043789;28;20548;-65
2022/01/01 00:59:47;;;;;;;3.35;2.35;;;0.20;99.90;;;;;;5039720;28;20232;-66
2022/01/01 01:02:19;;;;;;;3.90;2.30;;;0.10;99.90;;;;;;5047371;28;20648;-65
2022/01/01 01:04:51;;;;;;;3.08;2.13;;;0.10;99.90;;;;;;5047284;28;20220;-66
2022/01/01 01:07:27;;;;;;;1.70;1.60;;;0.10;99.90;;;;;;5047617;28;20222;-64
2022/01/01 01:09:57;;;;;;;2.17;1.98;;;0.00;99.90;;;;;;5046804;28;20213;-65
2022/01/01 01:12:38;;;;;;;2.92;2.10;;;0.00;99.90;;;;;;5045221;28;20218;-66
2022/01/01 01:15:16;;;;;;;4.07;1.80;;;-0.10;99.90;;;;;;5047407;28;20213;-65
2022/01/01 01:17:50;;;;;;;2.30;2.20;;;-0.10;99.90;;;;;;5048639;28;20252;-65
2022/01/01 01:20:22;;;;;;;2.50;2.30;;;-0.10;99.90;;;;;;5043840;28;20217;-66
2022/01/01 01:22:53;;;;;;;2.53;1.85;;;-0.20;99.90;;;;;;5048707;28;20300;-65
2022/01/01 01:25:28;;;;;;;1.65;1.55;;;-0.20;99.90;;;;;;5046263;28;20246;-66
2022/01/01 01:28:06;;;;;;;2.70;1.67;;;-0.30;99.90;;;;;;5048251;28;20607;-65
2022/01/01 01:30:38;;;;;;;2.30;2.13;;;-0.30;99.90;;;;;;5050804;28;20634;-65
2022/01/01 01:33:12;;;;;;;2.83;1.83;;;-0.40;99.90;;;;;;5043897;28;20275;-65
2022/01/01 01:35:43;;;;;;;1.80;1.55;;;-0.50;99.90;;;;;;5049962;28;20210;-66
2022/01/01 01:38:14;;;;;;;2.63;1.80;;;-0.50;99.90;;;;;;5051600;28;20230;-65
2022/01/01 01:40:44;;;;;;;2.50;2.30;;;-0.50;99.90;;;;;;5048541;28;20220;-66
2022/01/01 01:43:19;;;;;;;3.67;3.03;;;-0.60;99.90;;;;;;5049994;28;20335;-66
2022/01/01 01:45:51;;;;;;;2.70;2.50;;;-0.60;99.90;;;;;;5050226;28;20536;-65
2022/01/01 01:48:23;;;;;;;3.38;2.42;;;-0.60;99.90;;;;;;5050566;28;20213;-66
2022/01/01 01:50:54;;;;;;;1.90;1.75;;;-0.60;99.90;;;;;;5050083;28;20213;-66
2022/01/01 01:53:25;;;;;;;4.20;2.50;;;-0.60;99.90;;;;;;5051400;28;20227;-66
2022/01/01 01:55:57;;;;;;;2.50;2.13;;;-0.60;99.90;;;;;;5048462;28;20221;-66
2022/01/01 01:58:30;;;;;;;2.20;1.98;;;-0.70;99.90;;;;;;5049767;28;20249;-66
2022/01/01 02:03:46;;;;;;;2.28;2.08;;;-0.70;99.90;;;;;;5049761;28;20591;-66
2022/01/01 02:06:18;;;;;;;1.98;1.88;;;-0.70;99.90;;;;;;5049665;28;20331;-66
2022/01/01 02:08:50;;;;;;;1.92;1.80;;;-0.80;99.90;;;;;;5051227;28;20210;-66
2022/01/01 02:11:23;;;;;;;5.72;2.38;;;-0.80;99.90;;;;;;5049472;28;20672;-66
2022/01/01 02:14:12;;;;;;;2.38;1.60;;;-0.80;99.90;;;;;;5051331;28;20225;-66
2022/01/01 02:19:30;;;;;;;2.25;2.05;;;-0.80;99.90;;;;;;5045436;28;20230;-66
2022/01/01 02:22:04;;;;;;;2.47;2.28;;;-0.90;99.90;;;;;;5046094;28;20215;-66
2022/01/01 02:24:35;;;;;;;2.72;2.30;;;-0.80;99.90;;;;;;5048744;28;20238;-67
2022/01/01 02:27:06;;;;;;;4.40;2.38;;;-0.80;99.90;;;;;;5047956;28;20209;-66
2022/01/01 02:29:39;;;;;;;2.00;1.80;;;-0.80;99.90;;;;;;5049362;28;20221;-67
2022/01/01 02:32:15;;;;;;;2.35;2.10;;;-0.80;99.90;;;;;;5049509;28;20304;-66
2022/01/01 02:34:46;;;;;;;4.30;2.47;;;-0.80;99.90;;;;;;5048344;28;20510;-65
2022/01/01 02:37:18;;;;;;;2.72;2.53;;;-0.80;99.90;;;;;;5049166;28;20255;-66
2022/01/01 02:39:50;;;;;;;3.03;2.50;;;-0.70;99.90;;;;;;5049175;28;20225;-66
2022/01/01 02:42:22;;;;;;;3.00;1.98;;;-0.70;99.90;;;;;;5049260;28;20802;-66
2022/01/01 02:44:54;;;;;;;2.60;2.20;;;-0.70;99.90;;;;;;5048707;28;20217;-66
2022/01/01 02:47:25;;;;;;;2.80;2.60;;;-0.80;99.90;;;;;;5049323;28;20573;-66
2022/01/01 02:49:56;;;;;;;3.25;2.22;;;-0.80;99.90;;;;;;5047914;28;20218;-66
2022/01/01 02:52:28;;;;;;;2.70;1.80;;;-0.90;99.90;;;;;;5038564;28;20214;-66
2022/01/01 02:54:59;;;;;;;2.85;2.30;;;-0.90;99.90;;;;;;5050235;28;20231;-67
2022/01/01 02:57:30;;;;;;;3.53;2.40;;;-1.00;99.90;;;;;;5047106;28;20214;-66
2022/01/01 03:00:01;;;;;;;2.60;2.40;;;-1.10;99.90;;;;;;5042771;28;20214;-66
2022/01/01 03:02:32;;;;;;;3.10;2.60;;;-1.10;99.90;;;;;;5048892;28;20711;-66
2022/01/01 03:05:03;;;;;;;3.03;2.40;;;-1.10;99.90;;;;;;5036322;28;20245;-66
2022/01/01 03:07:36;;;;;;;2.75;2.15;;;-1.20;99.90;;;;;;5047258;28;20319;-66
2022/01/01 03:10:08;;;;;;;2.10;1.90;;;-1.20;99.90;;;;;;5048570;28;20221;-66
2022/01/01 03:12:39;;;;;;;2.25;2.10;;;-1.30;99.90;;;;;;5050341;28;20218;-66
2022/01/01 03:15:10;;;;;;;2.58;2.10;;;-1.30;99.90;;;;;;5046958;28;20217;-66
2022/01/01 03:17:41;;;;;;;2.03;1.83;;;-1.30;99.90;;;;;;5048290;28;20210;-66
2022/01/01 03:20:12;;;;;;;2.92;2.25;;;-1.30;99.90;;;;;;5045456;28;20217;-66
2022/01/01 03:22:45;;;;;;;2.65;2.40;;;-1.30;99.90;;;;;;5049964;28;20218;-66
2022/01/01 03:25:16;;;;;;;2.88;2.20;;;-1.30;99.90;;;;;;5047728;28;20606;-67
2022/01/01 03:27:46;;;;;;;2.10;1.90;;;-1.30;99.90;;;;;;5046794;28;20648;-66
2022/01/01 03:30:17;;;;;;;2.90;2.70;;;-1.40;99.90;;;;;;5049614;28;20568;-66
2022/01/01 03:32:48;;;;;;;3.00;2.10;;;-1.40;99.90;;;;;;5047046;28;20591;-66
2022/01/01 03:35:19;;;;;;;3.10;2.67;;;-1.40;99.90;;;;;;5048624;28;20225;-66
2022/01/01 03:37:51;;;;;;;5.93;2.90;;;-1.50;99.90;;;;;;5048177;28;20285;-67
2022/01/01 03:40:22;;;;;;;1.48;1.40;;;-1.40;99.90;;;;;;5047976;28;20216;-66
2022/01/01 03:42:53;;;;;;;1.90;1.80;;;-1.50;99.90;;;;;;5049692;28;20218;-67
2022/01/01 03:45:23;;;;;;;3.60;2.45;;;-1.50;99.90;;;;;;5045922;28;20218;-67
2022/01/01 03:47:54;;;;;;;2.30;2.10;;;-1.40;99.90;;;;;;5047440;28;20313;-66
2022/01/01 03:50:25;;;;;;;2.72;1.92;;;-1.40;99.90;;;;;;5046031;28;20214;-66
2022/01/01 03:52:58;;;;;;;2.90;2.38;;;-1.40;99.90;;;;;;5047771;28;20205;-66
2022/01/01 03:55:29;;;;;;;3.17;2.90;;;-1.40;99.90;;;;;;5047732;28;20218;-66
2022/01/01 03:57:59;;;;;;;3.90;2.60;;;-1.30;99.90;;;;;;5038066;28;20217;-66
2022/01/01 04:00:30;;;;;;;2.38;2.20;;;-1.30;99.90;;;;;;5047514;28;20601;-66
2022/01/01 04:03:08;;;;;;;2.00;1.83;;;-1.30;99.90;;;;;;5047063;28;20222;-66
2022/01/01 04:05:42;;;;;;;4.82;2.67;;;-1.30;99.90;;;;;;5047047;28;20688;-67
2022/01/01 04:08:15;;;;;;;2.40;2.20;;;-1.30;99.90;;;;;;5047675;28;20210;-67
2022/01/01 04:10:46;;;;;;;1.83;1.73;;;-1.30;99.90;;;;;;5048002;28;20213;-67
2022/01/01 04:13:17;;;;;;;5.00;2.85;;;-1.30;99.90;;;;;;5046094;28;20221;-67
2022/01/01 04:15:48;;;;;;;3.28;2.97;;;-1.30;99.90;;;;;;5049069;28;20210;-66
2022/01/01 04:18:26;;;;;;;2.75;2.55;;;-1.30;99.90;;;;;;5046651;28;20285;-66
2022/01/01 04:20:57;;;;;;;2.55;2.35;;;-1.30;99.90;;;;;;5046436;28;20224;-66
2022/01/01 04:23:30;;;;;;;2.60;2.40;;;-1.30;99.90;;;;;;5045192;28;20216;-66
2022/01/01 04:26:00;;;;;;;3.20;2.80;;;-1.30;99.90;;;;;;5038584;28;20583;-67
2022/01/01 04:28:31;;;;;;;3.17;2.30;;;-1.40;99.90;;;;;;5047026;28;20661;-66
2022/01/01 04:31:02;;;;;;;2.10;1.90;;;-1.50;99.90;;;;;;5044536;28;20687;-67
2022/01/01 04:33:33;;;;;;;2.42;1.83;;;-1.50;99.90;;;;;;5034742;28;20576;-65
2022/01/01 04:36:05;;;;;;;4.72;2.65;;;-1.60;99.90;;;;;;5047611;28;20235;-66
2022/01/01 04:38:39;;;;;;;2.75;2.20;;;-1.60;99.90;;;;;;5046427;28;20579;-66
2022/01/01 04:41:11;;;;;;;2.35;1.95;;;-1.70;99.90;;;;;;5046166;28;20234;-65
2022/01/01 04:43:48;;;;;;;4.30;2.47;;;-1.70;99.90;;;;;;5047513;28;20225;-66
2022/01/01 04:46:19;;;;;;;4.43;3.13;;;-1.80;99.90;;;;;;5047590;28;20218;-66
2022/01/01 04:48:49;;;;;;;2.88;1.80;;;-1.80;99.90;;;;;;5043703;28;20308;-66
2022/01/01 04:51:20;;;;;;;2.58;2.35;;;-1.90;99.90;;;;;;5047248;28;20213;-66
2022/01/01 04:53:59;;;;;;;1.52;1.42;;;-1.80;99.90;;;;;;5045228;28;20221;-66
2022/01/01 04:56:33;;;;;;;2.40;2.00;;;-1.80;99.90;;;;;;5047575;28;20267;-66
2022/01/01 04:59:04;;;;;;;5.07;2.00;;;-1.90;99.90;;;;;;5048891;28;20226;-66
2022/01/01 05:01:34;;;;;;;3.03;2.70;;;-1.90;99.90;;;;;;5048319;28;20220;-66
2022/01/01 05:04:06;;;;;;;2.00;1.85;;;-1.90;99.90;;;;;;5052026;28;20308;-65
2022/01/01 05:06:36;;;;;;;2.40;1.92;;;-1.90;99.90;;;;;;5051305;28;20650;-66
2022/01/01 05:09:09;;;;;;;3.75;2.30;;;-1.90;99.90;;;;;;5051379;28;20209;-66
2022/01/01 05:11:40;;;;;;;2.97;2.78;;;-2.00;99.90;;;;;;5051999;28;20214;-66
2022/01/01 05:14:11;;;;;;;2.45;2.15;;;-2.00;99.90;;;;;;5049451;28;20592;-66
2022/01/01 05:16:42;;;;;;;3.63;2.45;;;-2.00;99.90;;;;;;5052870;28;20616;-66
2022/01/01 05:19:13;;;;;;;3.00;2.47;;;-2.10;99.90;;;;;;5048124;28;20283;-67
2022/01/01 05:21:44;;;;;;;3.08;2.22;;;-2.10;99.90;;;;;;5040916;28;20206;-67
2022/01/01 05:24:18;;;;;;;2.97;1.85;;;-2.10;99.90;;;;;;5052464;28;20237;-66
2022/01/01 05:26:49;;;;;;;2.88;2.13;;;-2.10;99.90;;;;;;5048670;28;20664;-66
2022/01/01 05:29:20;;;;;;;2.00;1.90;;;-2.10;99.90;;;;;;5052040;28;20706;-66
2022/01/01 05:31:51;;;;;;;3.40;2.00;;;-2.10;99.90;;;;;;5049656;28;20632;-66
2022/01/01 05:34:22;;;;;;;1.42;1.33;;;-2.10;99.90;;;;;;5051396;28;20245;-66
2022/01/01 05:36:53;;;;;;;2.63;1.98;;;-2.10;99.90;;;;;;5051092;28;20232;-66
2022/01/01 05:39:27;;;;;;;2.60;2.40;;;-2.10;99.90;;;;;;5050731;28;20225;-67
2022/01/01 05:41:57;;;;;;;3.63;2.53;;;-2.10;99.90;;;;;;5051442;28;20210;-66
2022/01/01 05:44:28;;;;;;;2.38;1.60;;;-2.10;99.90;;;;;;5050483;28;20711;-66
2022/01/01 05:47:00;;;;;;;2.50;1.73;;;-2.10;99.90;;;;;;5036690;28;20338;-66
2022/01/01 05:49:30;;;;;;;2.25;2.05;;;-2.20;99.90;;;;;;5049418;28;20225;-65
2022/01/01 05:52:01;;;;;;;2.35;2.15;;;-2.10;99.90;;;;;;5035021;28;20220;-66
2022/01/01 05:54:34;;;;;;;2.20;1.95;;;-2.10;99.90;;;;;;5052016;28;20218;-65
2022/01/01 05:57:05;;;;;;;2.22;2.03;;;-2.10;99.90;;;;;;5047281;28;20592;-65
2022/01/01 05:59:40;;;;;;;1.63;1.52;;;-2.10;99.90;;;;;;5051453;28;20291;-66
2022/01/01 06:02:11;;;;;;;2.70;1.88;;;-2.10;99.90;;;;;;5050834;28;20216;-66
2022/01/01 06:04:42;;;;;;;1.73;1.63;;;-2.10;99.90;;;;;;5042117;28;20221;-65
2022/01/01 06:07:15;;;;;;;1.70;1.60;;;-2.10;99.90;;;;;;5052013;28;20650;-67
2022/01/01 06:09:49;;;;;;;1.55;1.45;;;-2.20;99.90;;;;;;5049919;28;20209;-65
2022/01/01 06:12:30;;;;;;;2.33;2.13;;;-2.20;99.90;;;;;;5051827;28;20710;-65
2022/01/01 06:15:00;;;;;;;3.03;1.95;;;-2.30;99.90;;;;;;5042589;28;20412;-65
2022/01/01 06:17:31;;;;;;;1.58;1.48;;;-2.30;99.90;;;;;;5051686;28;20217;-65
2022/01/01 06:20:02;;;;;;;1.80;1.70;;;-2.30;99.90;;;;;;5046973;28;20750;-65
2022/01/01 06:22:36;;;;;;;1.92;1.83;;;-2.30;99.90;;;;;;5050974;28;20213;-66
2022/01/01 06:25:09;;;;;;;2.05;1.52;;;-2.20;99.90;;;;;;5049717;28;20679;-65
2022/01/01 06:27:43;;;;;;;2.38;2.10;;;-2.20;99.90;;;;;;5048094;28;20245;-67
2022/01/01 06:30:14;;;;;;;3.47;1.98;;;-2.30;99.90;;;;;;5049251;28;20212;-66
2022/01/01 06:32:54;;;;;;;1.67;1.58;;;-2.20;99.90;;;;;;5049299;28;20214;-68
2022/01/01 06:35:25;;;;;;;2.28;2.08;;;-2.30;99.90;;;;;;5047462;28;20282;-66
2022/01/01 06:37:58;;;;;;;2.10;1.90;;;-2.30;99.90;;;;;;5049220;28;20225;-66
2022/01/01 06:40:31;;;;;;;1.70;1.60;;;-2.30;99.90;;;;;;5050475;28;20233;-66
2022/01/01 06:43:04;;;;;;;4.38;2.63;;;-2.30;99.90;;;;;;5042402;28;20219;-66
2022/01/01 06:45:35;;;;;;;2.05;1.95;;;-2.40;99.90;;;;;;5046599;28;20209;-66
2022/01/01 06:48:07;;;;;;;1.83;1.70;;;-2.40;99.90;;;;;;5051175;28;20643;-65
2022/01/01 06:50:38;;;;;;;2.95;1.98;;;-2.40;99.90;;;;;;5047799;28;20309;-66
2022/01/01 06:53:19;;;;;;;2.83;2.25;;;-2.40;99.90;;;;;;5051011;28;20257;-66
2022/01/01 06:55:51;;;;;;;3.90;2.30;;;-2.30;99.90;;;;;;5046849;28;20217;-66
2022/01/01 06:58:22;;;;;;;2.10;1.90;;;-2.30;99.90;;;;;;5042208;28;20210;-66
2022/01/01 07:00:53;;;;;;;2.65;2.00;;;-2.40;99.90;;;;;;5047208;28;20757;-64
2022/01/01 07:03:24;;;;;;;2.55;1.55;;;-2.50;99.90;;;;;;5046472;28;20225;-68
2022/01/01 07:05:55;;;;;;;1.67;1.42;;;-2.60;99.90;;;;;;5046518;28;20241;-64
2022/01/01 07:08:26;;;;;;;2.40;2.00;;;-2.50;99.90;;;;;;5049525;28;20590;-64
2022/01/01 07:10:58;;;;;;;2.00;1.80;;;-2.60;99.90;;;;;;5046591;28;20661;-64
2022/01/01 07:13:29;;;;;;;2.08;1.80;;;-2.60;99.90;;;;;;5049179;28;20221;-64
2022/01/01 07:16:01;;;;;;;5.30;2.20;;;-2.60;99.90;;;;;;5046377;28;20225;-68
2022/01/01 07:18:35;;;;;;;3.35;2.13;;;-2.60;99.90;;;;;;5047702;28;20233;-68
2022/01/01 07:21:06;;;;;;;1.40;1.30;;;-2.60;99.90;;;;;;5052414;28;20228;-66
2022/01/01 07:23:42;;;;;;;2.72;1.67;;;-2.60;99.90;;;;;;5046347;28;20221;-66
2022/01/01 07:26:15;;;;;;;3.28;2.03;;;-2.70;99.90;;;;;;5047647;28;20225;-67
2022/01/01 07:28:46;;;;;;;1.70;1.58;;;-2.60;99.90;;;;;;5048544;28;20214;-67
2022/01/01 07:31:16;;;;;;;1.40;1.30;;;-2.60;99.90;;;;;;5045898;28;20214;-69
2022/01/01 07:33:50;;;;;;;2.70;2.20;;;-2.60;99.90;;;;;;5040562;28;20213;-67
2022/01/01 07:36:21;;;;;;;2.28;2.00;;;-2.60;99.90;;;;;;5050760;28;20218;-66
2022/01/01 07:38:54;;;;;;;1.90;1.80;;;-2.60;99.90;;;;;;5056723;28;20687;-66
2022/01/01 07:41:26;;;;;;;2.42;2.05;;;-2.70;99.90;;;;;;5043486;28;20232;-64
2022/01/01 07:44:00;;;;;;;2.47;2.28;;;-2.60;99.90;;;;;;5048583;28;20221;-65
2022/01/01 07:46:31;;;;;;;3.60;2.15;;;-2.60;99.90;;;;;;5052907;28;20222;-68
2022/01/01 07:49:02;;;;;;;3.45;2.28;;;-2.60;99.90;;;;;;5040014;28;20217;-68
2022/01/01 07:51:32;;;;;;;2.60;2.28;;;-2.60;99.90;;;;;;5045160;28;20214;-68
2022/01/01 07:54:08;;;;;;;4.22;3.83;;;-2.60;99.90;;;;;;5050693;28;20225;-66
2022/01/01 07:56:41;;;;;;;5.15;4.25;;;-2.60;99.90;;;;;;5048879;28;20629;-67
2022/01/01 07:59:15;;;;;;;3.90;2.55;;;-2.60;99.90;;;;;;5054453;28;20750;-68
2022/01/01 08:01:47;;;;;;;2.05;1.85;;;-2.60;99.90;;;;;;5040777;28;20558;-67
2022/01/01 08:04:18;;;;;;;2.95;2.50;;;-2.60;99.90;;;;;;5037324;28;20322;-67
2022/01/01 08:06:49;;;;;;;3.35;2.30;;;-2.70;99.90;;;;;;5047730;28;20594;-68
2022/01/01 08:09:20;;;;;;;3.17;1.95;;;-2.70;99.90;;;;;;5045036;28;20221;-68
2022/01/01 08:11:54;;;;;;;2.10;1.60;;;-2.70;99.90;;;;;;5046407;28;20653;-67
2022/01/01 08:14:25;;;;;;;2.40;1.70;;;-2.70;99.90;;;;;;5049325;28;20614;-67
2022/01/01 08:16:57;;;;;;;1.60;1.50;;;-2.80;99.90;;;;;;5046968;28;20216;-66
2022/01/01 08:19:32;;;;;;;2.00;1.80;;;-2.80;99.90;;;;;;5048298;28;20218;-68
2022/01/01 08:22:04;;;;;;;4.22;2.28;;;-2.80;99.90;;;;;;5051103;28;20657;-66
2022/01/01 08:24:35;;;;;;;40.85;30.00;;;-2.80;99.90;;;;;;5048783;28;20230;-67
2022/01/01 08:27:07;;;;;;;9.18;7.25;;;-2.80;99.90;;;;;;5045776;28;20587;-67
2022/01/01 08:29:38;;;;;;;3.25;2.40;;;-2.80;99.90;;;;;;5047878;28;20288;-66
2022/01/01 08:32:10;;;;;;;3.08;1.70;;;-2.80;99.90;;;;;;5041145;28;20209;-67
2022/01/01 08:34:46;;;;;;;2.67;2.40;;;-2.80;99.90;;;;;;5044922;28;20259;-68
2022/01/01 08:37:16;;;;;;;1.88;1.67;;;-2.80;99.90;;;;;;5047005;28;20209;-68
2022/01/01 08:39:55;;;;;;;1.67;1.58;;;-2.80;99.90;;;;;;5048362;28;20217;-68
2022/01/01 08:42:27;;;;;;;1.90;1.80;;;-2.80;99.90;;;;;;5048981;28;20232;-67
2022/01/01 08:44:58;;;;;;;1.98;1.77;;;-2.70;99.90;;;;;;5041604;28;20214;-67
2022/01/01 08:47:29;;;;;;;4.68;1.67;;;-2.70;99.90;;;;;;5051087;28;20757;-66
2022/01/01 08:50:00;;;;;;;2.50;1.88;;;-2.70;99.90;;;;;;5044485;28;20236;-68
2022/01/01 08:52:31;;;;;;;1.52;1.20;;;-2.70;99.90;;;;;;5047543;28;20265;-67
2022/01/01 08:55:01;;;;;;;1.55;1.45;;;-2.70;99.90;;;;;;5046518;28;20221;-67
2022/01/01 08:57:34;;;;;;;2.38;2.17;;;-2.80;99.90;;;;;;5042452;28;20236;-66
2022/01/01 09:00:08;;;;;;;1.80;1.45;;;-2.80;99.90;;;;;;5045452;28;20217;-68
2022/01/01 09:02:39;;;;;;;1.50;1.40;;;-2.80;99.90;;;;;;5056742;28;20682;-67
2022/01/01 09:05:16;;;;;;;1.95;1.45;;;-2.80;99.90;;;;;;5049113;28;20272;-68
2022/01/01 09:07:47;;;;;;;3.00;1.63;;;-2.90;99.90;;;;;;5044486;28;20225;-67
2022/01/01 09:10:20;;;;;;;1.75;1.55;;;-2.90;99.90;;;;;;5049577;28;20228;-69
2022/01/01 09:12:52;;;;;;;1.90;1.80;;;-3.00;99.90;;;;;;5045796;28;20210;-68
2022/01/01 09:15:30;;;;;;;1.65;1.48;;;-3.00;99.90;;;;;;5043181;28;20214;-69
2022/01/01 09:18:00;;;;;;;1.85;1.45;;;-3.00;99.90;;;;;;5040348;28;20217;-69
2022/01/01 09:20:39;;;;;;;2.08;1.88;;;-3.00;99.90;;;;;;5044153;28;20214;-69
2022/01/01 09:23:10;;;;;;;1.35;1.25;;;-3.00;99.90;;;;;;5052048;28;20229;-68
2022/01/01 09:25:41;;;;;;;2.28;1.60;;;-3.00;99.90;;;;;;5051598;28;20258;-68
2022/01/01 09:28:14;;;;;;;2.25;1.50;;;-3.00;99.90;;;;;;5047137;28;20217;-67
2022/01/01 09:30:44;;;;;;;2.35;1.52;;;-2.90;99.90;;;;;;5044387;28;20232;-68
2022/01/01 09:33:15;;;;;;;1.80;1.70;;;-2.90;99.90;;;;;;5057060;28;20221;-69
2022/01/01 09:35:55;;;;;;;2.42;2.05;;;-2.90;99.90;;;;;;5037469;28;20217;-69
2022/01/01 09:38:26;;;;;;;1.60;1.50;;;-3.00;99.90;;;;;;5057116;28;20561;-69
2022/01/01 09:41:00;;;;;;;1.38;1.27;;;-3.00;99.90;;;;;;5045625;28;20217;-68
2022/01/01 09:43:34;;;;;;;1.50;1.40;;;-3.00;99.90;;;;;;5044600;28;20224;-68
2022/01/01 09:46:08;;;;;;;1.55;1.42;;;-2.90;99.90;;;;;;5036072;28;20301;-68
2022/01/01 09:48:39;;;;;;;2.47;1.40;;;-3.00;99.90;;;;;;5046447;28;20320;-68
2022/01/01 09:51:10;;;;;;;1.40;1.30;;;-3.00;99.90;;;;;;5049031;28;20210;-68
2022/01/01 09:53:41;;;;;;;4.57;1.70;;;-2.90;99.90;;;;;;5052208;28;20214;-68
2022/01/01 09:56:21;;;;;;;1.83;1.73;;;-2.90;99.90;;;;;;5053774;28;20225;-68
2022/01/01 09:58:53;;;;;;;1.15;1.15;;;-2.90;99.90;;;;;;5050627;28;20218;-68
2022/01/01 10:01:24;;;;;;;1.75;1.48;;;-2.90;99.90;;;;;;5048988;28;20228;-68
2022/01/01 10:03:56;;;;;;;1.27;1.15;;;-3.00;99.90;;;;;;5051300;28;20231;-68
2022/01/01 10:06:29;;;;;;;4.05;2.63;;;-3.00;99.90;;;;;;5052048;28;20214;-68
2022/01/01 10:09:03;;;;;;;2.80;1.70;;;-3.00;99.90;;;;;;5051147;28;20220;-68
2022/01/01 10:11:34;;;;;;;3.00;1.80;;;-3.00;99.90;;;;;;5049228;28;20225;-69
2022/01/01 10:14:09;;;;;;;1.50;1.40;;;-3.00;99.90;;;;;;5047220;28;20218;-68
2022/01/01 10:16:44;;;;;;;1.52;1.42;;;-3.00;99.90;;;;;;5050349;28;20287;-67
2022/01/01 10:19:15;;;;;;;1.50;1.33;;;-3.10;99.90;;;;;;5056245;28;20292;-66
2022/01/01 10:21:50;;;;;;;2.40;1.50;;;-3.10;99.90;;;;;;5050893;28;20232;-67
2022/01/01 10:24:30;;;;;;;2.08;1.33;;;-3.10;99.90;;;;;;5049284;28;20237;-67
2022/01/01 10:30:04;;;;;;;1.35;1.25;;;-3.10;99.90;;;;;;5044386;28;20232;-67
2022/01/01 10:32:35;;;;;;;1.45;1.35;;;-3.10;99.90;;;;;;5061245;28;20209;-66
2022/01/01 10:35:07;;;;;;;1.67;1.50;;;-3.00;99.90;;;;;;5049629;28;20236;-66
2022/01/01 10:37:38;;;;;;;1.40;1.30;;;-3.00;99.90;;;;;;5050871;28;20271;-67
2022/01/01 10:40:12;;;;;;;3.53;1.48;;;-3.10;99.90;;;;;;5047735;28;20210;-67
2022/01/01 10:42:51;;;;;;;1.92;1.75;;;-3.10;99.90;;;;;;5061917;28;21206;-67
2022/01/01 10:45:33;;;;;;;1.85;1.75;;;-3.20;99.90;;;;;;5043439;28;20616;-67
2022/01/01 10:48:21;;;;;;;3.78;1.42;;;-3.10;99.90;;;;;;5048112;28;20429;-68
2022/01/01 10:50:56;;;;;;;1.77;1.33;;;-3.10;99.90;;;;;;5049377;28;20212;-66
2022/01/01 10:53:29;;;;;;;1.15;1.00;;;-3.10;99.90;;;;;;5050360;28;20219;-67
2022/01/01 10:56:01;;;;;;;2.28;1.73;;;-3.10;99.90;;;;;;5046966;28;20217;-68
2022/01/01 10:58:34;;;;;;;1.48;1.38;;;-3.10;99.90;;;;;;5048795;28;20232;-66
2022/01/01 11:01:07;;;;;;;2.95;1.63;;;-3.20;99.90;;;;;;5051955;28;20217;-66
2022/01/01 11:03:40;;;;;;;2.20;1.40;;;-3.10;99.90;;;;;;5044555;28;21071;-68
2022/01/01 11:06:12;;;;;;;2.35;1.60;;;-3.20;99.90;;;;;;5047050;28;20710;-67
2022/01/01 11:08:45;;;;;;;2.17;1.73;;;-3.20;99.90;;;;;;5049373;28;20206;-66
2022/01/01 11:11:16;;;;;;;2.35;2.15;;;-3.20;99.90;;;;;;5049999;28;20224;-67
2022/01/01 11:13:47;;;;;;;2.30;1.50;;;-3.20;99.90;;;;;;5062898;28;20206;-67
2022/01/01 11:16:20;;;;;;;1.90;1.45;;;-3.20;99.90;;;;;;5043657;28;20686;-67
2022/01/01 11:18:53;;;;;;;3.15;1.98;;;-3.20;99.90;;;;;;5039962;28;20206;-67
2022/01/01 11:21:24;;;;;;;3.10;1.90;;;-3.10;99.90;;;;;;5046536;28;20595;-67
2022/01/01 11:23:55;;;;;;;2.92;2.03;;;-3.10;99.90;;;;;;5047562;28;20228;-66
2022/01/01 11:26:28;;;;;;;2.35;2.08;;;-3.10;99.90;;;;;;5048479;28;20554;-66
2022/01/01 11:29:00;;;;;;;2.22;1.75;;;-3.20;99.90;;;;;;5044392;28;20253;-66
2022/01/01 11:31:33;;;;;;;2.75;1.85;;;-3.20;99.90;;;;;;5046829;28;20218;-66
2022/01/01 11:34:04;;;;;;;2.28;1.63;;;-3.20;99.90;;;;;;5040193;28;20316;-66
2022/01/01 11:36:37;;;;;;;1.70;1.60;;;-3.20;99.90;;;;;;5048442;28;20213;-67
2022/01/01 11:39:09;;;;;;;1.90;1.65;;;-3.30;99.90;;;;;;5040853;28;20221;-67
2022/01/01 11:41:41;;;;;;;2.05;1.63;;;-3.20;99.90;;;;;;5046476;28;20601;-66
2022/01/01 11:44:31;;;;;;;2.60;1.63;;;-3.20;99.90;;;;;;5057656;28;20300;-67
2022/01/01 11:47:06;;;;;;;2.35;2.15;;;-3.20;99.90;;;;;;5041931;28;20214;-66
2022/01/01 11:49:37;;;;;;;2.03;1.83;;;-3.20;99.90;;;;;;5044941;28;20209;-67
2022/01/01 11:52:40;;;;;;;2.45;2.10;;;-3.10;99.90;;;;;;5047907;28;20653;-67
2022/01/01 11:55:13;;;;;;;3.40;1.80;;;-3.10;99.90;;;;;;5046822;28;20271;-68
2022/01/01 11:57:57;;;;;;;2.10;2.00;;;-3.10;99.90;;;;;;5044793;28;20291;-69
2022/01/01 12:00:28;;;;;;;2.13;2.03;;;-3.20;99.90;;;;;;5045020;28;20213;-68
2022/01/01 12:03:17;;;;;;;1.45;1.35;;;-3.20;99.90;;;;;;5047372;28;20222;-69
2022/01/01 12:06:05;;;;;;;1.65;1.55;;;-3.30;99.90;;;;;;5047383;28;20210;-68
2022/01/01 12:08:44;;;;;;;3.17;2.00;;;-3.30;99.90;;;;;;5046963;28;20249;-67
2022/01/01 12:11:30;;;;;;;1.65;1.55;;;-3.30;99.90;;;;;;5042315;28;20213;-67
2022/01/01 12:14:03;;;;;;;2.05;1.88;;;-3.30;99.90;;;;;;5047080;28;20214;-67
2022/01/01 12:16:34;;;;;;;1.80;1.70;;;-3.30;99.90;;;;;;5048445;28;20597;-67
2022/01/01 12:19:08;;;;;;;2.72;1.80;;;-3.20;99.90;;;;;;5046325;28;20217;-67
2022/01/01 12:21:42;;;;;;;3.40;2.25;;;-3.20;99.90;;;;;;5047124;28;20231;-67
2022/01/01 12:24:20;;;;;;;2.72;1.70;;;-3.20;99.90;;;;;;5048739;28;20256;-67
2022/01/01 12:26:55;;;;;;;4.20;1.73;;;-3.20;99.90;;;;;;5043808;28;20225;-68
2022/01/01 12:29:27;;;;;;;4.18;2.03;;;-3.20;99.90;;;;;;5046906;28;20627;-68
2022/01/01 12:31:59;;;;;;;4.93;2.35;;;-3.20;99.90;;;;;;5045304;28;20573;-67
2022/01/01 12:34:32;;;;;;;2.00;1.90;;;-3.10;99.90;;;;;;5046384;28;20293;-67
2022/01/01 12:37:07;;;;;;;2.42;1.80;;;-3.10;99.90;;;;;;5043717;28;20214;-67
2022/01/01 12:39:59;;;;;;;5.03;1.95;;;-3.10;99.90;;;;;;5048605;28;20304;-68
2022/01/01 12:42:32;;;;;;;4.80;2.28;;;-3.10;99.90;;;;;;5046825;28;20213;-67
2022/01/01 12:45:05;;;;;;;2.25;2.05;;;-3.10;99.90;;;;;;5053577;28;20218;-67
2022/01/01 12:47:36;;;;;;;2.40;2.00;;;-3.10;99.90;;;;;;5043809;28;20225;-68
2022/01/01 12:50:12;;;;;;;1.98;1.75;;;-3.20;99.90;;;;;;5044002;28;20209;-67
2022/01/01 12:52:42;;;;;;;2.28;1.92;;;-3.20;99.90;;;;;;5045212;28;20217;-68
2022/01/01 12:55:14;;;;;;;2.25;1.88;;;-3.20;99.90;;;;;;5038703;28;20261;-68
2022/01/01 12:57:45;;;;;;;1.40;1.30;;;-3.20;99.90;;;;;;5045064;28;20214;-67
2022/01/01 13:00:23;;;;;;;2.10;1.77;;;-3.30;99.90;;;;;;5046551;28;20218;-68
2022/01/01 13:03:00;;;;;;;1.73;1.52;;;-3.30;99.90;;;;;;5045528;28;20224;-68
2022/01/01 13:05:33;;;;;;;1.60;1.50;;;-3.30;99.90;;;;;;5047252;28;20234;-67
2022/01/01 13:08:06;;;;;;;2.05;1.75;;;-3.30;99.90;;;;;;5047102;28;20220;-67
2022/01/01 13:10:39;;;;;;;2.58;1.90;;;-3.40;99.90;;;;;;5046444;28;20221;-67
2022/01/01 13:13:10;;;;;;;3.53;1.65;;;-3.40;99.90;;;;;;5045624;28;20214;-67
2022/01/01 13:15:40;;;;;;;1.98;1.83;;;-3.40;99.90;;;;;;5039640;28;20206;-68
2022/01/01 13:18:11;;;;;;;2.25;1.75;;;-3.40;99.90;;;;;;5044883;28;20320;-68
2022/01/01 13:20:44;;;;;;;2.65;1.67;;;-3.40;99.90;;;;;;5044477;28;20589;-68
2022/01/01 13:23:17;;;;;;;2.03;1.80;;;-3.40;99.90;;;;;;5047149;28;20221;-68
2022/01/01 13:25:48;;;;;;;2.88;1.90;;;-3.40;99.90;;;;;;5046733;28;20238;-68
2022/01/01 13:28:19;;;;;;;3.30;1.80;;;-3.40;99.90;;;;;;5050516;28;20258;-68